Time;durP1;ratioP1;P1;durP2;ratioP2;P2;SDS_P1;SDS_P2;PMS_P1;PMS_P2;Temp;Humidity;BMP_temperature;BMP_pressure;BME280_temperature;BME280_humidity;BME280_pressure;Samples;Min_cycle;Max_cycle;Signal;HPM_P1;HPM_P2
2022/05/29 00:01:01;;;;;;;2.55;1.20;;;;;;;25.12;41.92;98895.22;5046960;28;20028;-85
2022/05/29 00:03:27;;;;;;;1.20;0.90;;;;;;;25.11;42.05;98894.34;5066440;28;20100;-86
2022/05/29 00:05:52;;;;;;;2.30;0.80;;;;;;;25.10;42.07;98887.34;5064745;28;20119;-85
2022/05/29 00:08:31;;;;;;;2.22;0.93;;;;;;;25.08;42.03;98883.94;5082639;28;20028;-84
2022/05/29 00:11:00;;;;;;;1.88;0.90;;;;;;;25.07;42.22;98887.59;5060322;28;20093;-84
2022/05/29 00:13:27;;;;;;;2.13;0.95;;;;;;;25.06;42.34;98878.75;5059476;28;20428;-85
2022/05/29 00:15:53;;;;;;;1.98;1.02;;;;;;;25.05;42.17;98870.88;5059071;28;20024;-83
2022/05/29 00:18:19;;;;;;;2.28;1.10;;;;;;;25.03;41.96;98868.31;5059783;28;20369;-84
2022/05/29 00:20:54;;;;;;;2.03;1.00;;;;;;;25.01;42.00;98872.97;5076863;28;20060;-83
2022/05/29 00:23:20;;;;;;;2.25;1.10;;;;;;;25.01;42.11;98864.09;5076352;28;20374;-84
2022/05/29 00:25:48;;;;;;;2.17;1.00;;;;;;;24.98;42.34;98861.72;5058842;28;20058;-85
2022/05/29 00:28:14;;;;;;;1.88;0.93;;;;;;;24.97;42.13;98857.34;5058954;28;20526;-85
2022/05/29 00:30:40;;;;;;;1.92;1.02;;;;;;;24.94;42.33;98861.97;5058470;28;20107;-85
2022/05/29 00:33:06;;;;;;;2.13;1.10;;;;;;;24.94;42.34;98861.97;5058069;28;20351;-83
2022/05/29 00:35:32;;;;;;;1.35;0.90;;;;;;;24.93;42.33;98865.63;5057904;28;20458;-83
2022/05/29 00:37:59;;;;;;;1.63;0.98;;;;;;;24.93;42.33;98860.28;5057577;28;20034;-84
2022/05/29 00:40:57;;;;;;;1.13;0.85;;;;;;;24.92;42.35;98858.59;5057632;28;20028;-84
2022/05/29 00:43:23;;;;;;;3.03;0.85;;;;;;;24.91;42.30;98859.59;5040082;28;20041;-84
2022/05/29 00:45:57;;;;;;;1.40;0.85;;;;;;;24.90;42.29;98863.22;5060071;28;20036;-84
2022/05/29 00:48:23;;;;;;;2.08;1.00;;;;;;;24.88;42.22;98862.50;5058080;28;20025;-85
2022/05/29 00:50:51;;;;;;;1.58;0.90;;;;;;;24.88;42.08;98862.50;5075043;28;20031;-83
2022/05/29 00:53:17;;;;;;;1.40;0.85;;;;;;;24.87;42.38;98865.31;5075399;28;20024;-83
2022/05/29 00:55:50;;;;;;;2.45;0.93;;;;;;;24.86;42.36;98859.13;5075391;28;20090;-84
2022/05/29 00:58:17;;;;;;;2.05;1.10;;;;;;;24.85;42.49;98859.25;5075549;28;20028;-84
2022/05/29 01:00:43;;;;;;;2.03;0.90;;;;;;;24.83;42.22;98854.06;5075322;28;20024;-83
2022/05/29 01:03:08;;;;;;;2.33;1.00;;;;;;;24.83;42.46;98855.91;5057141;28;20058;-85
2022/05/29 01:05:36;;;;;;;2.00;0.98;;;;;;;24.82;42.13;98851.50;5057820;28;20111;-83
2022/05/29 01:08:13;;;;;;;2.45;0.85;;;;;;;24.80;42.15;98846.31;5057975;28;20447;-82
2022/05/29 01:10:48;;;;;;;1.95;0.90;;;;;;;24.79;42.42;98852.63;5075483;28;20025;-84
2022/05/29 01:13:31;;;;;;;1.88;1.00;;;;;;;24.78;42.15;98845.56;5075678;28;20089;-84
2022/05/29 01:16:20;;;;;;;1.75;0.98;;;;;;;24.78;42.16;98850.91;5057267;28;20056;-85
2022/05/29 01:19:13;;;;;;;2.60;1.33;;;;;;;24.77;42.49;98842.06;5058378;28;20063;-84
2022/05/29 01:22:02;;;;;;;1.35;0.82;;;;;;;24.75;42.00;98840.53;5075594;28;20048;-86
2022/05/29 01:24:48;;;;;;;0.95;0.68;;;;;;;24.75;42.20;98835.19;5057093;28;20024;-83
2022/05/29 01:27:42;;;;;;;1.38;0.80;;;;;;;24.73;42.13;98837.13;5059537;28;20028;-84
2022/05/29 01:30:21;;;;;;;3.00;1.17;;;;;;;24.71;42.49;98839.09;5058015;28;20043;-85
2022/05/29 01:33:05;;;;;;;1.70;0.90;;;;;;;24.71;42.18;98833.75;5058653;28;20028;-85
2022/05/29 01:35:50;;;;;;;1.27;0.90;;;;;;;24.70;42.19;98834.72;5061403;28;20028;-85
2022/05/29 01:38:30;;;;;;;2.53;1.00;;;;;;;24.68;42.30;98832.19;5079806;28;20029;-85
2022/05/29 01:41:21;;;;;;;3.03;1.00;;;;;;;24.67;42.11;98828.69;5078741;28;20513;-85
2022/05/29 01:44:36;;;;;;;2.60;1.27;;;;;;;24.65;41.99;98829.81;5078633;28;20028;-85
2022/05/29 01:47:14;;;;;;;1.60;0.88;;;;;;;24.64;42.17;98828.94;5000256;28;20033;-85
2022/05/29 01:49:53;;;;;;;2.15;0.82;;;;;;;24.62;42.20;98822.91;5000308;28;20056;-86
2022/05/29 01:52:50;;;;;;;1.52;0.80;;;;;;;24.61;42.27;98823.03;5038273;28;20043;-85
2022/05/29 01:55:22;;;;;;;2.00;0.90;;;;;;;24.60;42.23;98822.19;5068932;28;20477;-84
2022/05/29 01:57:53;;;;;;;1.88;0.90;;;;;;;24.60;42.05;98816.84;5059749;28;20481;-84
2022/05/29 02:00:21;;;;;;;1.45;0.80;;;;;;;24.60;42.30;98813.34;5060689;28;20408;-85
2022/05/29 02:03:01;;;;;;;1.40;0.95;;;;;;;24.58;42.03;98812.63;5063107;28;20451;-85
2022/05/29 02:05:37;;;;;;;2.00;0.85;;;;;;;24.56;42.41;98815.44;5065499;28;20458;-85
2022/05/29 02:08:12;;;;;;;;;;;;;;;24.57;42.12;98817.13;5083428;28;20111;-85
2022/05/29 02:10:44;;;;;;;2.83;1.00;;;;;;;24.55;42.16;98824.41;5064659;28;19908;-86
2022/05/29 02:13:22;;;;;;;1.30;0.90;;;;;;;24.52;42.30;98816.69;5065511;28;20048;-85
2022/05/29 02:16:12;;;;;;;1.40;0.90;;;;;;;24.52;42.37;98814.88;5066467;28;20024;-85
2022/05/29 02:18:44;;;;;;;2.03;0.90;;;;;;;24.52;42.18;98819.34;5067604;28;20036;-86
2022/05/29 02:21:36;;;;;;;1.40;0.85;;;;;;;24.51;42.04;98807.00;5081251;28;20028;-85
2022/05/29 02:24:07;;;;;;;1.15;0.73;;;;;;;24.49;42.11;98809.78;5076589;28;20032;-86
2022/05/29 02:26:40;;;;;;;2.67;1.00;;;;;;;24.47;42.19;98806.41;5067687;28;20056;-85
2022/05/29 02:29:09;;;;;;;1.98;1.05;;;;;;;24.47;42.06;98794.91;5065618;28;20101;-83
2022/05/29 02:32:16;;;;;;;1.50;0.90;;;;;;;24.46;42.07;98798.53;5078230;28;20055;-84
2022/05/29 02:35:06;;;;;;;2.17;0.88;;;;;;;24.46;42.04;98798.53;5037718;28;20029;-83
2022/05/29 02:37:40;;;;;;;1.55;0.80;;;;;;;24.44;41.75;98801.34;5060457;28;20042;-84
2022/05/29 02:40:19;;;;;;;2.10;0.90;;;;;;;24.43;41.86;98799.66;5078281;28;20028;-85
2022/05/29 02:43:06;;;;;;;1.95;1.00;;;;;;;24.42;41.91;98797.13;5061864;28;20098;-84
2022/05/29 02:45:46;;;;;;;2.42;0.68;;;;;;;24.41;42.04;98796.28;5062083;28;20131;-84
2022/05/29 02:48:50;;;;;;;1.48;0.77;;;;;;;24.39;42.00;98799.06;5060215;28;20040;-83
2022/05/29 02:51:37;;;;;;;1.58;0.90;;;;;;;24.38;42.07;98794.72;5056657;28;20117;-83
2022/05/29 02:54:02;;;;;;;1.67;0.80;;;;;;;24.37;42.06;98795.69;5078072;28;20035;-84
2022/05/29 02:56:28;;;;;;;2.13;0.93;;;;;;;24.36;41.94;98786.00;5060652;28;20119;-83
2022/05/29 02:58:57;;;;;;;2.00;0.93;;;;;;;24.33;41.86;98785.41;5060194;28;20094;-84
2022/05/29 03:01:43;;;;;;;1.60;0.80;;;;;;;24.32;42.29;98784.59;5060080;28;20044;-83
2022/05/29 03:04:40;;;;;;;1.83;0.80;;;;;;;24.32;42.08;98778.41;5060214;28;20021;-84
2022/05/29 03:07:24;;;;;;;1.90;1.05;;;;;;;24.32;41.96;98776.59;5060794;28;20481;-84
2022/05/29 03:10:19;;;;;;;1.70;0.95;;;;;;;24.31;42.10;98774.88;5059980;28;20450;-84
2022/05/29 03:13:08;;;;;;;2.55;0.90;;;;;;;24.30;42.13;98777.69;5070273;28;20074;-84
2022/05/29 03:16:00;;;;;;;1.48;0.80;;;;;;;24.28;42.17;98775.16;5063459;28;20107;-84
2022/05/29 03:18:34;;;;;;;2.13;1.10;;;;;;;24.27;42.19;98773.47;5060559;28;20131;-84
2022/05/29 03:21:07;;;;;;;1.40;0.95;;;;;;;24.26;42.15;98769.13;5079318;28;20086;-84
2022/05/29 03:23:54;;;;;;;1.45;0.80;;;;;;;24.25;42.00;98765.59;5079762;28;20029;-84
2022/05/29 03:26:45;;;;;;;1.83;0.82;;;;;;;24.24;42.16;98763.91;5062209;28;20028;-86
2022/05/29 03:29:30;;;;;;;2.33;0.85;;;;;;;24.22;42.09;98765.84;5078971;28;20024;-84
2022/05/29 03:31:57;;;;;;;3.17;1.00;;;;;;;24.21;42.40;98768.66;5060789;28;20121;-85
2022/05/29 03:34:22;;;;;;;3.40;1.25;;;;;;;24.20;42.19;98761.63;5060699;28;20016;-86
2022/05/29 03:36:50;;;;;;;3.13;1.20;;;;;;;24.19;42.16;98774.13;5060981;28;20378;-84
2022/05/29 03:39:17;;;;;;;2.58;0.90;;;;;;;24.18;42.07;98774.25;5077866;28;20028;-84
2022/05/29 03:41:49;;;;;;;3.78;1.50;;;;;;;24.18;42.14;98774.25;5060105;28;20374;-84
2022/05/29 03:44:18;;;;;;;2.22;1.00;;;;;;;24.17;42.27;98772.56;5077659;28;20045;-84
2022/05/29 03:46:44;;;;;;;2.17;1.00;;;;;;;24.15;42.19;98772.69;5077781;28;20411;-84
2022/05/29 03:49:11;;;;;;;2.20;1.08;;;;;;;24.17;42.11;98783.22;5059863;28;20028;-84
2022/05/29 03:51:37;;;;;;;1.70;0.85;;;;;;;24.13;41.96;98778.16;5077418;28;20039;-82
2022/05/29 03:54:04;;;;;;;1.45;0.85;;;;;;;24.12;42.14;98780.97;5079255;28;20028;-85
2022/05/29 03:56:30;;;;;;;1.25;0.88;;;;;;;24.11;42.05;98780.09;5076456;28;20033;-86
2022/05/29 03:58:56;;;;;;;1.88;1.05;;;;;;;24.10;42.20;98783.75;5058522;28;20039;-82
2022/05/29 04:01:21;;;;;;;2.15;0.93;;;;;;;24.09;42.11;98782.06;5060110;28;20048;-84
2022/05/29 04:03:47;;;;;;;2.75;1.10;;;;;;;24.08;42.15;98775.06;5058504;28;20028;-83
2022/05/29 04:06:13;;;;;;;1.83;0.90;;;;;;;24.07;42.12;98778.66;5058966;28;20039;-83
2022/05/29 04:14:07;;;;;;;2.65;0.90;;;;;;;24.04;42.11;98778.91;5076838;28;20519;-83
2022/05/29 04:16:33;;;;;;;2.08;0.95;;;;;;;24.04;42.11;98778.91;5060097;28;20033;-86
2022/05/29 04:18:59;;;;;;;3.50;1.00;;;;;;;24.00;42.14;98772.16;5077646;28;20086;-85
2022/05/29 04:21:25;;;;;;;1.58;0.90;;;;;;;24.02;41.68;98785.34;5059905;28;20446;-85
2022/05/29 04:23:51;;;;;;;1.90;0.90;;;;;;;24.02;42.17;98791.50;5059062;28;20086;-86
2022/05/29 04:26:17;;;;;;;1.65;0.90;;;;;;;24.00;41.97;98782.81;5060007;28;20428;-84
2022/05/29 04:28:43;;;;;;;1.58;0.80;;;;;;;23.98;41.91;98785.59;5060421;28;20051;-84
2022/05/29 04:31:09;;;;;;;2.13;0.90;;;;;;;23.96;42.03;98787.56;5078970;28;20038;-84
2022/05/29 04:33:35;;;;;;;2.35;1.10;;;;;;;23.95;41.93;98791.19;5061177;28;20030;-85
2022/05/29 04:36:01;;;;;;;2.53;1.02;;;;;;;23.94;42.10;98783.31;5061414;28;20516;-85
2022/05/29 04:38:27;;;;;;;3.00;0.80;;;;;;;23.94;41.91;98778.84;5063455;28;20020;-84
2022/05/29 04:40:54;;;;;;;2.20;1.08;;;;;;;23.93;42.01;98782.50;5063541;28;20024;-85
2022/05/29 04:43:20;;;;;;;2.45;0.90;;;;;;;23.92;42.00;98790.63;5063777;28;20032;-85
2022/05/29 04:45:51;;;;;;;2.17;0.98;;;;;;;23.91;41.97;98788.94;5081752;28;20035;-86
2022/05/29 04:48:17;;;;;;;2.58;1.00;;;;;;;23.90;41.96;98793.41;5083941;28;20058;-85
2022/05/29 04:50:43;;;;;;;2.63;0.90;;;;;;;23.90;41.87;98797.88;5065977;28;20111;-86
2022/05/29 04:53:09;;;;;;;1.70;0.98;;;;;;;23.86;42.22;98792.81;5082409;28;20028;-87
2022/05/29 04:55:35;;;;;;;1.83;0.95;;;;;;;23.86;41.94;98792.81;5079641;28;20036;-84
2022/05/29 04:58:01;;;;;;;2.60;1.00;;;;;;;23.86;42.05;98795.47;5061553;28;20048;-83
2022/05/29 05:00:27;;;;;;;1.90;0.75;;;;;;;23.86;42.03;98800.81;5061695;28;20030;-84
2022/05/29 05:02:53;;;;;;;1.80;1.10;;;;;;;23.85;41.95;98801.78;5061333;28;20114;-83
2022/05/29 05:05:19;;;;;;;2.55;0.93;;;;;;;23.84;42.00;98805.44;5039677;28;20131;-85
2022/05/29 05:07:45;;;;;;;2.15;1.00;;;;;;;23.83;42.03;98809.03;5040727;28;20100;-85
2022/05/29 05:10:14;;;;;;;1.45;0.75;;;;;;;23.83;41.94;98808.22;5038948;28;20060;-85
2022/05/29 05:12:41;;;;;;;1.60;0.85;;;;;;;23.83;41.94;98809.03;5038915;28;20032;-85
2022/05/29 05:15:09;;;;;;;2.60;0.80;;;;;;;23.84;41.93;98809.91;5039745;28;20501;-85
2022/05/29 05:17:35;;;;;;;2.35;0.85;;;;;;;23.84;41.94;98804.56;5041231;28;20033;-85
2022/05/29 05:20:01;;;;;;;2.65;1.15;;;;;;;23.83;41.80;98809.03;5039479;28;20028;-84
2022/05/29 05:22:26;;;;;;;1.95;0.88;;;;;;;23.84;41.90;98809.91;5039412;28;20097;-85
2022/05/29 05:24:52;;;;;;;1.55;0.70;;;;;;;23.83;41.84;98811.72;5041274;28;20028;-85
2022/05/29 05:27:18;;;;;;;1.75;0.98;;;;;;;23.83;41.94;98808.22;5054691;28;20025;-85
2022/05/29 05:29:44;;;;;;;2.00;0.90;;;;;;;23.83;41.87;98808.22;5037101;28;20107;-84
2022/05/29 05:32:10;;;;;;;1.85;0.77;;;;;;;23.84;41.62;98812.56;5054687;28;20108;-84
2022/05/29 05:34:35;;;;;;;2.38;1.00;;;;;;;23.82;41.96;98818.00;5038230;28;20028;-84
2022/05/29 05:37:01;;;;;;;2.35;0.85;;;;;;;23.83;41.77;98814.38;5042454;28;20029;-84
2022/05/29 05:39:27;;;;;;;1.67;0.80;;;;;;;23.83;41.76;98808.22;5042231;28;20035;-82
2022/05/29 05:41:52;;;;;;;3.00;1.17;;;;;;;23.81;41.94;98811.00;5042067;28;20054;-85
2022/05/29 05:44:18;;;;;;;2.63;1.17;;;;;;;23.82;42.02;98817.19;5041931;28;20344;-84
2022/05/29 05:46:45;;;;;;;2.13;1.00;;;;;;;23.81;42.07;98808.34;5041840;28;20040;-83
2022/05/29 05:49:11;;;;;;;2.50;0.95;;;;;;;23.80;41.92;98809.31;5041654;28;20040;-85
2022/05/29 05:51:37;;;;;;;2.35;1.10;;;;;;;23.82;41.80;98815.34;5042006;28;20041;-85
2022/05/29 05:54:03;;;;;;;3.30;1.10;;;;;;;23.81;41.88;98816.31;5042723;28;20029;-84
2022/05/29 05:56:28;;;;;;;1.92;1.08;;;;;;;23.80;41.89;98811.97;5042525;28;20053;-84
2022/05/29 05:58:54;;;;;;;1.50;0.73;;;;;;;23.79;42.02;98812.97;5061453;28;20047;-85
2022/05/29 06:01:19;;;;;;;2.40;1.17;;;;;;;23.80;41.94;98819.97;5062723;28;20044;-84
2022/05/29 06:03:45;;;;;;;2.97;0.70;;;;;;;23.80;41.81;98822.63;5061392;28;20020;-83
2022/05/29 06:06:11;;;;;;;1.67;0.88;;;;;;;23.81;41.72;98820.78;5062041;28;20025;-83
2022/05/29 06:08:36;;;;;;;1.73;0.80;;;;;;;23.82;41.75;98817.19;5079707;28;20032;-84
2022/05/29 06:11:02;;;;;;;2.30;1.05;;;;;;;23.82;41.78;98826.00;5061548;28;20170;-85
2022/05/29 06:13:28;;;;;;;1.80;0.98;;;;;;;23.83;41.69;98819.69;5061874;28;20035;-85
2022/05/29 06:15:54;;;;;;;1.85;0.90;;;;;;;23.85;41.62;98817.78;5061791;28;20036;-85
2022/05/29 06:18:19;;;;;;;2.15;0.70;;;;;;;23.84;41.81;98821.41;5061546;28;20373;-85
2022/05/29 06:20:46;;;;;;;2.60;1.00;;;;;;;23.87;41.73;98812.28;5061068;28;20037;-85
2022/05/29 06:23:12;;;;;;;1.70;0.93;;;;;;;23.89;41.66;98814.84;5060704;28;20445;-83
2022/05/29 06:25:42;;;;;;;1.70;0.80;;;;;;;23.90;41.63;98819.19;5060945;28;20093;-86
2022/05/29 06:28:08;;;;;;;2.72;1.00;;;;;;;23.91;41.68;98820.91;5061095;28;20335;-84
2022/05/29 06:30:35;;;;;;;1.88;0.88;;;;;;;23.90;41.70;98813.84;5062149;28;20029;-83
2022/05/29 06:33:02;;;;;;;2.20;0.82;;;;;;;23.89;41.68;98813.03;5082072;28;20029;-83
2022/05/29 06:35:28;;;;;;;1.90;0.80;;;;;;;23.91;41.92;98813.72;5064830;28;20047;-84
2022/05/29 06:37:54;;;;;;;1.55;0.80;;;;;;;23.94;41.70;98809.97;5065135;28;20122;-84
2022/05/29 06:40:21;;;;;;;2.25;0.88;;;;;;;23.94;41.76;98813.50;5063785;28;20464;-83
2022/05/29 06:42:47;;;;;;;2.00;0.88;;;;;;;23.95;41.82;98806.31;5062472;28;20474;-84
2022/05/29 06:45:12;;;;;;;2.15;0.98;;;;;;;23.97;41.77;98809.72;5062654;28;20024;-85
2022/05/29 06:47:39;;;;;;;2.05;0.70;;;;;;;23.96;41.71;98808.00;5061493;28;20029;-85
2022/05/29 06:50:06;;;;;;;1.85;1.02;;;;;;;23.97;41.66;98807.88;5062141;28;20052;-84
2022/05/29 06:52:31;;;;;;;2.70;0.80;;;;;;;23.96;41.79;98814.19;5079932;28;20063;-84
2022/05/29 06:54:58;;;;;;;1.88;0.95;;;;;;;23.99;41.88;98813.09;5080416;28;20109;-85
2022/05/29 07:08:41;;;;;;;2.47;0.80;;;;;;;24.07;41.74;98815.97;5081184;28;20043;-85
2022/05/29 07:11:17;;;;;;;2.22;0.93;;;;;;;24.10;41.81;98820.22;5065324;28;20029;-85
2022/05/29 07:13:43;;;;;;;2.33;0.80;;;;;;;24.12;41.81;98818.28;5067081;28;20055;-85
2022/05/29 07:16:09;;;;;;;3.17;0.90;;;;;;;24.12;41.87;98823.59;5085845;28;20461;-85
2022/05/29 07:18:35;;;;;;;2.00;0.90;;;;;;;24.15;42.00;98819.84;5062948;28;20049;-84
2022/05/29 07:21:02;;;;;;;1.67;0.82;;;;;;;24.13;41.90;98815.47;5060418;28;20020;-83
2022/05/29 07:23:28;;;;;;;3.47;0.98;;;;;;;24.12;41.76;98813.78;5078351;28;20385;-82
2022/05/29 07:25:54;;;;;;;1.65;0.70;;;;;;;24.13;41.97;98815.47;5059969;28;20024;-83
2022/05/29 07:28:21;;;;;;;3.80;0.80;;;;;;;24.15;41.93;98817.19;5059234;28;20121;-83
2022/05/29 07:30:51;;;;;;;2.67;0.88;;;;;;;24.11;42.20;98809.44;5059201;28;20024;-83
2022/05/29 07:33:17;;;;;;;1.98;0.80;;;;;;;24.15;41.91;98806.50;5059119;28;20109;-84
2022/05/29 07:35:43;;;;;;;1.73;0.60;;;;;;;24.15;42.02;98811.84;5059140;28;20032;-83
2022/05/29 07:38:09;;;;;;;1.58;0.80;;;;;;;24.16;42.03;98808.19;5059078;28;20033;-82
2022/05/29 07:40:35;;;;;;;1.05;0.60;;;;;;;24.16;42.02;98809.03;5059055;28;20028;-82
2022/05/29 07:43:19;;;;;;;1.65;0.80;;;;;;;24.19;41.84;98813.25;5076767;28;20021;-84
2022/05/29 07:45:53;;;;;;;1.33;0.60;;;;;;;24.21;41.92;98806.00;5058639;28;20102;-83
2022/05/29 07:48:23;;;;;;;2.40;0.98;;;;;;;24.21;41.93;98806.00;5076938;28;20027;-84
2022/05/29 07:50:49;;;;;;;3.13;0.90;;;;;;;24.23;41.89;98814.69;5061787;28;20115;-82
2022/05/29 07:53:15;;;;;;;1.52;0.88;;;;;;;24.24;41.94;98811.03;5059559;28;20040;-84
2022/05/29 07:55:43;;;;;;;3.03;0.90;;;;;;;24.25;41.80;98797.59;5059650;28;20047;-83
2022/05/29 07:58:09;;;;;;;1.80;0.98;;;;;;;24.25;41.87;98802.06;5058888;28;20504;-84
2022/05/29 08:00:36;;;;;;;1.38;0.90;;;;;;;24.29;41.80;98805.31;5059385;28;20039;-83
2022/05/29 08:03:02;;;;;;;1.95;0.70;;;;;;;24.30;41.90;98815.84;5059790;28;20048;-84
2022/05/29 08:05:31;;;;;;;1.70;0.80;;;;;;;24.31;41.72;98812.19;5060501;28;20063;-84
2022/05/29 08:07:57;;;;;;;2.88;0.98;;;;;;;24.33;41.74;98810.28;5061974;28;20027;-84
2022/05/29 08:10:25;;;;;;;1.42;0.75;;;;;;;24.33;41.86;98807.59;5062534;28;20474;-84
2022/05/29 08:12:51;;;;;;;1.73;0.90;;;;;;;24.37;41.68;98806.34;5079801;28;20029;-83
2022/05/29 08:15:17;;;;;;;1.70;0.98;;;;;;;24.39;41.59;98809.75;5079337;28;20024;-84
2022/05/29 08:17:43;;;;;;;2.03;0.85;;;;;;;24.40;41.58;98800.75;5077910;28;20465;-83
2022/05/29 08:20:11;;;;;;;2.17;0.70;;;;;;;24.42;41.59;98808.63;5059753;28;20055;-84
2022/05/29 08:22:36;;;;;;;2.17;0.88;;;;;;;24.43;41.39;98798.78;5059789;28;20129;-84
2022/05/29 08:30:38;;;;;;;2.08;1.00;;;;;;;24.49;41.39;98798.25;5078057;28;20047;-84
2022/05/29 08:33:06;;;;;;;2.40;0.70;;;;;;;24.50;41.23;98800.81;5057527;28;20039;-85
2022/05/29 08:35:33;;;;;;;2.13;1.00;;;;;;;24.52;41.27;98808.69;5058406;28;20119;-83
2022/05/29 08:38:00;;;;;;;2.38;0.98;;;;;;;24.53;41.18;98800.56;5058791;28;20040;-83
2022/05/29 08:40:27;;;;;;;2.03;0.80;;;;;;;24.54;41.13;98791.56;5058803;28;20116;-82
2022/05/29 08:42:53;;;;;;;2.53;0.90;;;;;;;24.57;41.12;98790.47;5058859;28;20055;-86
2022/05/29 08:45:19;;;;;;;2.10;0.90;;;;;;;24.58;41.09;98797.47;5058581;28;20059;-84
2022/05/29 08:47:46;;;;;;;3.10;1.27;;;;;;;24.61;41.25;98794.56;5058787;28;20458;-82
2022/05/29 08:51:04;;;;;;;2.45;0.90;;;;;;;24.61;41.19;98781.22;5058644;28;20024;-84
2022/05/29 08:53:50;;;;;;;1.88;0.90;;;;;;;24.64;41.25;98780.94;5066509;28;20083;-84
2022/05/29 08:56:32;;;;;;;3.87;0.93;;;;;;;24.65;41.18;98779.94;5075591;28;20044;-85
2022/05/29 08:59:12;;;;;;;1.85;0.80;;;;;;;24.68;41.04;98776.19;5058214;28;20119;-84
2022/05/29 09:01:56;;;;;;;1.88;0.90;;;;;;;24.69;41.28;98767.19;5057765;28;20076;-83
2022/05/29 09:04:41;;;;;;;2.95;0.98;;;;;;;24.71;41.18;98767.91;5075931;28;20513;-84
2022/05/29 09:07:09;;;;;;;1.98;0.75;;;;;;;24.73;41.01;98767.75;5059064;28;20111;-84
2022/05/29 09:09:43;;;;;;;3.88;0.98;;;;;;;24.76;41.15;98771.03;5076533;28;20029;-83
2022/05/29 09:12:24;;;;;;;2.25;0.90;;;;;;;24.77;41.06;98770.03;5058846;28;20028;-83
2022/05/29 09:15:02;;;;;;;2.72;0.70;;;;;;;24.78;40.89;98771.72;5059074;28;20097;-84
2022/05/29 09:17:36;;;;;;;2.13;0.88;;;;;;;24.80;40.71;98769.75;5059140;28;20032;-84
2022/05/29 09:20:04;;;;;;;1.52;0.60;;;;;;;24.82;40.83;98767.00;5060048;28;20071;-84
2022/05/29 09:22:36;;;;;;;2.97;1.10;;;;;;;24.83;40.72;98762.50;5060892;28;20032;-84
2022/05/29 09:25:08;;;;;;;1.52;0.65;;;;;;;24.85;40.65;98766.72;5079186;28;20116;-84
2022/05/29 09:27:35;;;;;;;2.33;0.90;;;;;;;24.86;40.87;98762.22;5060996;28;20032;-85
2022/05/29 09:30:01;;;;;;;2.22;0.95;;;;;;;24.88;40.93;98758.44;5079381;28;20021;-84
2022/05/29 09:32:29;;;;;;;2.83;0.93;;;;;;;24.91;40.92;98760.00;5062808;28;20370;-86
2022/05/29 09:35:19;;;;;;;2.53;0.90;;;;;;;24.91;40.68;98763.53;5063410;28;20042;-85
2022/05/29 09:38:05;;;;;;;2.03;0.88;;;;;;;24.93;40.82;98755.34;5063915;28;20052;-86
2022/05/29 09:40:41;;;;;;;2.58;0.70;;;;;;;24.94;40.90;98757.88;5064018;28;20028;-86
2022/05/29 09:43:19;;;;;;;3.38;0.85;;;;;;;24.96;40.64;98762.25;5063454;28;20062;-84
2022/05/29 09:45:45;;;;;;;2.75;1.08;;;;;;;24.98;40.84;98754.97;5061330;28;20032;-84
2022/05/29 09:51:30;;;;;;;4.07;1.20;;;;;;;25.02;40.85;98751.03;5079446;28;20039;-85
2022/05/29 09:54:03;;;;;;;2.72;0.90;;;;;;;25.04;40.77;98749.06;5060584;28;20021;-85
2022/05/29 09:56:32;;;;;;;3.00;1.10;;;;;;;25.05;40.81;98745.41;5058739;28;20020;-83
2022/05/29 09:59:18;;;;;;;1.98;0.80;;;;;;;25.06;40.96;98750.63;5076872;28;20081;-87
2022/05/29 10:01:47;;;;;;;1.65;0.75;;;;;;;25.08;40.51;98745.13;5060394;28;20124;-84
2022/05/29 10:04:20;;;;;;;2.10;0.90;;;;;;;25.10;40.82;98745.00;5074218;28;20035;-83
2022/05/29 10:06:50;;;;;;;2.42;0.80;;;;;;;25.12;40.86;98746.56;5058633;28;20070;-83
2022/05/29 10:09:17;;;;;;;3.25;0.98;;;;;;;25.13;40.55;98744.75;5057129;28;20025;-85
2022/05/29 10:11:46;;;;;;;1.52;0.70;;;;;;;25.14;40.86;98744.56;5057621;28;20133;-83
2022/05/29 10:14:36;;;;;;;2.28;0.80;;;;;;;25.15;41.01;98735.59;5074791;28;20016;-82
2022/05/29 10:17:11;;;;;;;2.47;0.85;;;;;;;25.17;40.85;98738.97;5056766;28;20169;-83
2022/05/29 10:19:42;;;;;;;1.95;0.70;;;;;;;25.18;40.65;98739.84;5074617;28;20024;-82
2022/05/29 10:22:30;;;;;;;2.58;0.95;;;;;;;25.19;41.04;98731.66;5075854;28;20115;-86
2022/05/29 10:24:57;;;;;;;1.50;0.90;;;;;;;25.23;40.62;98731.41;5060616;28;20335;-83
2022/05/29 10:27:32;;;;;;;2.45;0.82;;;;;;;25.23;40.71;98732.22;5080267;28;20021;-84
2022/05/29 10:30:14;;;;;;;2.13;0.85;;;;;;;25.25;40.82;98730.28;5061604;28;20017;-83
2022/05/29 10:32:42;;;;;;;2.28;0.70;;;;;;;25.27;41.05;98738.16;5064419;28;20034;-84
2022/05/29 10:35:31;;;;;;;1.65;1.00;;;;;;;25.29;41.03;98730.84;5081317;28;20027;-84
2022/05/29 10:38:11;;;;;;;2.00;0.68;;;;;;;25.30;40.48;98737.84;5063049;28;20496;-83
2022/05/29 10:40:41;;;;;;;3.22;0.80;;;;;;;25.33;40.76;98737.59;5065946;28;20111;-84
2022/05/29 10:43:06;;;;;;;2.55;0.98;;;;;;;25.35;40.72;98732.94;5080015;28;20039;-82
2022/05/29 10:45:47;;;;;;;1.30;0.70;;;;;;;25.35;41.01;98722.25;5080416;28;20024;-83
2022/05/29 10:48:27;;;;;;;1.88;0.80;;;;;;;25.38;40.70;98724.66;5064503;28;20024;-82
2022/05/29 10:51:00;;;;;;;1.40;0.70;;;;;;;25.39;40.81;98710.31;5080491;28;20052;-83
2022/05/29 10:53:53;;;;;;;2.97;1.10;;;;;;;25.40;40.83;98712.00;5079725;28;20031;-82
2022/05/29 10:56:30;;;;;;;2.28;0.75;;;;;;;25.42;40.92;98707.34;5079494;28;20466;-83
2022/05/29 10:59:19;;;;;;;3.38;1.00;;;;;;;25.44;40.77;98701.88;5060730;28;20051;-84
2022/05/29 11:04:53;;;;;;;1.88;0.82;;;;;;;25.47;41.10;98697.09;5079108;28;20047;-84
2022/05/29 11:07:49;;;;;;;1.88;0.68;;;;;;;25.50;40.77;98701.31;5063384;28;20028;-84
2022/05/29 11:10:14;;;;;;;1.20;0.70;;;;;;;25.52;40.49;98693.16;5051222;28;20086;-83
2022/05/29 11:12:47;;;;;;;1.70;0.80;;;;;;;25.54;40.61;98691.22;5061796;28;20037;-82
2022/05/29 11:15:52;;;;;;;2.75;0.85;;;;;;;25.55;40.91;98684.88;5061546;28;20028;-83
2022/05/29 11:18:49;;;;;;;2.55;0.90;;;;;;;25.56;40.85;98681.25;5080364;28;20027;-84
2022/05/29 11:21:32;;;;;;;3.55;1.17;;;;;;;25.58;40.82;98681.94;5067359;28;20084;-82
2022/05/29 11:24:07;;;;;;;1.85;0.80;;;;;;;25.59;40.60;98672.94;5065338;28;20033;-84
2022/05/29 11:26:35;;;;;;;2.03;0.80;;;;;;;25.61;40.78;98670.97;5065947;28;20106;-84
2022/05/29 11:29:27;;;;;;;2.97;0.70;;;;;;;25.63;40.76;98669.00;5063645;28;20053;-83
2022/05/29 11:32:18;;;;;;;2.63;0.98;;;;;;;25.65;40.54;98666.19;5080595;28;20024;-84
2022/05/29 11:35:17;;;;;;;1.27;0.65;;;;;;;25.67;40.64;98658.88;5060620;28;20028;-85
2022/05/29 11:37:51;;;;;;;2.42;0.80;;;;;;;25.69;40.61;98662.22;5081220;28;20028;-85
2022/05/29 11:40:17;;;;;;;1.90;0.80;;;;;;;25.70;40.83;98654.06;5062526;28;20062;-82
2022/05/29 11:42:55;;;;;;;1.38;0.70;;;;;;;25.72;40.48;98651.28;5061283;28;20024;-83
2022/05/29 11:51:28;;;;;;;2.30;1.27;;;;;;;25.77;40.70;98638.31;5083360;28;20054;-84
2022/05/29 11:54:42;;;;;;;1.83;0.80;;;;;;;25.78;41.07;98636.47;5065667;28;20108;-85
2022/05/29 11:57:25;;;;;;;1.00;0.50;;;;;;;25.81;40.61;98642.38;4986992;28;20026;-84
2022/05/29 12:00:09;;;;;;;2.15;0.80;;;;;;;25.82;40.96;98640.56;5004347;28;20089;-85
2022/05/29 12:02:50;;;;;;;3.20;0.63;;;;;;;25.83;40.87;98634.22;5040075;28;20051;-87
2022/05/29 12:05:41;;;;;;;1.88;0.80;;;;;;;25.85;40.95;98640.25;5048142;28;20035;-85
2022/05/29 12:08:18;;;;;;;2.00;0.70;;;;;;;25.87;40.50;98640.97;5041435;28;20124;-84
2022/05/29 12:11:14;;;;;;;2.63;0.98;;;;;;;25.88;40.87;98623.94;5058945;28;20037;-81
2022/05/29 12:13:59;;;;;;;2.70;1.10;;;;;;;25.89;40.77;98628.28;5041627;28;20347;-82
2022/05/29 12:16:30;;;;;;;3.08;0.98;;;;;;;25.91;40.83;98628.97;5040988;28;20267;-83
2022/05/29 12:18:58;;;;;;;1.80;0.80;;;;;;;25.92;40.77;98627.16;5041148;28;20132;-82
2022/05/29 12:21:40;;;;;;;2.65;0.88;;;;;;;25.93;40.90;98629.69;5042206;28;20036;-84
2022/05/29 12:24:10;;;;;;;2.33;0.80;;;;;;;25.95;40.81;98616.19;5039781;28;20028;-82
2022/05/29 12:27:15;;;;;;;1.90;0.88;;;;;;;25.95;40.94;98614.34;5058743;28;20039;-83
2022/05/29 12:29:52;;;;;;;1.88;0.70;;;;;;;25.97;40.90;98596.34;5040479;28;20036;-84
2022/05/29 12:32:20;;;;;;;1.88;0.70;;;;;;;25.99;40.50;98599.69;5041285;28;20056;-82
2022/05/29 12:34:54;;;;;;;4.32;1.10;;;;;;;26.01;40.52;98599.56;5040507;28;20021;-82
2022/05/29 12:37:38;;;;;;;1.73;0.70;;;;;;;26.01;40.89;98592.34;5059014;28;20028;-83